sensor_id;sensor_type;location;lat;lon;timestamp;P1;durP1;ratioP1;P2;durP2;ratioP2
29330;SDS011;16331;52.528;13.342;2022-09-21T00:00:48;6.38;;;3.50;;
29330;SDS011;16331;52.528;13.342;2022-09-21T00:03:14;10.95;;;3.78;;
29330;SDS011;16331;52.528;13.342;2022-09-21T00:05:41;6.22;;;3.72;;
29330;SDS011;16331;52.528;13.342;2022-09-21T00:08:08;7.85;;;3.50;;
29330;SDS011;16331;52.528;13.342;2022-09-21T00:10:36;8.27;;;3.58;;
29330;SDS011;16331;52.528;13.342;2022-09-21T00:13:03;9.02;;;4.75;;
29330;SDS011;16331;52.528;13.342;2022-09-21T00:15:31;6.53;;;4.00;;
29330;SDS011;16331;52.528;13.342;2022-09-21T00:18:00;6.20;;;3.78;;
29330;SDS011;16331;52.528;13.342;2022-09-21T00:20:27;8.98;;;4.07;;
29330;SDS011;16331;52.528;13.342;2022-09-21T00:22:54;6.85;;;3.78;;
29330;SDS011;16331;52.528;13.342;2022-09-21T00:25:21;6.00;;;3.63;;
29330;SDS011;16331;52.528;13.342;2022-09-21T00:27:47;6.97;;;4.40;;
29330;SDS011;16331;52.528;13.342;2022-09-21T00:30:15;8.27;;;3.40;;
29330;SDS011;16331;52.528;13.342;2022-09-21T00:32:41;7.25;;;3.47;;
29330;SDS011;16331;52.528;13.342;2022-09-21T00:35:08;7.38;;;4.15;;
29330;SDS011;16331;52.528;13.342;2022-09-21T00:37:34;5.78;;;3.67;;
29330;SDS011;16331;52.528;13.342;2022-09-21T00:40:00;5.22;;;3.63;;
29330;SDS011;16331;52.528;13.342;2022-09-21T00:42:29;7.72;;;4.53;;
29330;SDS011;16331;52.528;13.342;2022-09-21T00:44:57;7.15;;;3.42;;
29330;SDS011;16331;52.528;13.342;2022-09-21T00:50:08;5.85;;;3.35;;
29330;SDS011;16331;52.528;13.342;2022-09-21T00:52:43;6.05;;;3.50;;
29330;SDS011;16331;52.528;13.342;2022-09-21T00:55:47;6.70;;;4.15;;
29330;SDS011;16331;52.528;13.342;2022-09-21T00:58:13;9.18;;;3.83;;
29330;SDS011;16331;52.528;13.342;2022-09-21T01:00:43;7.85;;;3.67;;
29330;SDS011;16331;52.528;13.342;2022-09-21T01:03:09;11.35;;;3.70;;
29330;SDS011;16331;52.528;13.342;2022-09-21T01:05:37;7.72;;;4.30;;
29330;SDS011;16331;52.528;13.342;2022-09-21T01:08:03;6.38;;;3.17;;
29330;SDS011;16331;52.528;13.342;2022-09-21T01:10:40;8.68;;;3.65;;
29330;SDS011;16331;52.528;13.342;2022-09-21T01:16:00;5.40;;;3.30;;
29330;SDS011;16331;52.528;13.342;2022-09-21T01:22:01;8.30;;;3.95;;
29330;SDS011;16331;52.528;13.342;2022-09-21T01:27:43;4.25;;;3.17;;
29330;SDS011;16331;52.528;13.342;2022-09-21T01:30:21;8.18;;;3.30;;
29330;SDS011;16331;52.528;13.342;2022-09-21T01:32:56;7.45;;;3.45;;
29330;SDS011;16331;52.528;13.342;2022-09-21T01:35:32;5.70;;;3.53;;
29330;SDS011;16331;52.528;13.342;2022-09-21T01:38:09;6.40;;;3.78;;
29330;SDS011;16331;52.528;13.342;2022-09-21T01:40:47;8.02;;;4.28;;
29330;SDS011;16331;52.528;13.342;2022-09-21T01:45:58;6.38;;;3.15;;
29330;SDS011;16331;52.528;13.342;2022-09-21T01:48:27;5.88;;;3.40;;
29330;SDS011;16331;52.528;13.342;2022-09-21T01:50:59;9.13;;;3.47;;
29330;SDS011;16331;52.528;13.342;2022-09-21T01:53:31;5.22;;;2.92;;
29330;SDS011;16331;52.528;13.342;2022-09-21T01:56:04;6.80;;;3.33;;
29330;SDS011;16331;52.528;13.342;2022-09-21T01:58:49;7.18;;;4.10;;
29330;SDS011;16331;52.528;13.342;2022-09-21T02:01:29;7.68;;;3.38;;
29330;SDS011;16331;52.528;13.342;2022-09-21T02:04:03;6.07;;;3.20;;
29330;SDS011;16331;52.528;13.342;2022-09-21T02:06:34;5.63;;;2.97;;
29330;SDS011;16331;52.528;13.342;2022-09-21T02:09:02;4.63;;;2.67;;
29330;SDS011;16331;52.528;13.342;2022-09-21T02:11:28;6.35;;;3.17;;
29330;SDS011;16331;52.528;13.342;2022-09-21T02:13:54;5.20;;;3.05;;
29330;SDS011;16331;52.528;13.342;2022-09-21T02:16:33;7.68;;;2.90;;
29330;SDS011;16331;52.528;13.342;2022-09-21T02:19:44;5.80;;;3.45;;
29330;SDS011;16331;52.528;13.342;2022-09-21T02:22:12;5.50;;;2.88;;
29330;SDS011;16331;52.528;13.342;2022-09-21T02:24:46;4.78;;;3.28;;
29330;SDS011;16331;52.528;13.342;2022-09-21T02:27:32;5.00;;;3.08;;
29330;SDS011;16331;52.528;13.342;2022-09-21T02:30:06;4.03;;;2.80;;
29330;SDS011;16331;52.528;13.342;2022-09-21T02:32:42;3.85;;;2.72;;
29330;SDS011;16331;52.528;13.342;2022-09-21T02:35:31;5.25;;;2.47;;
29330;SDS011;16331;52.528;13.342;2022-09-21T02:38:21;3.97;;;2.38;;
29330;SDS011;16331;52.528;13.342;2022-09-21T02:41:04;5.85;;;2.92;;
29330;SDS011;16331;52.528;13.342;2022-09-21T02:43:51;4.78;;;3.05;;
29330;SDS011;16331;52.528;13.342;2022-09-21T02:46:32;3.75;;;2.65;;
29330;SDS011;16331;52.528;13.342;2022-09-21T02:49:14;11.65;;;3.72;;
29330;SDS011;16331;52.528;13.342;2022-09-21T02:51:44;4.28;;;2.88;;
29330;SDS011;16331;52.528;13.342;2022-09-21T02:54:15;7.25;;;3.28;;
29330;SDS011;16331;52.528;13.342;2022-09-21T02:56:45;8.77;;;3.38;;
29330;SDS011;16331;52.528;13.342;2022-09-21T02:59:12;5.82;;;3.38;;
29330;SDS011;16331;52.528;13.342;2022-09-21T03:01:40;7.20;;;3.30;;
29330;SDS011;16331;52.528;13.342;2022-09-21T03:04:08;9.10;;;3.58;;
29330;SDS011;16331;52.528;13.342;2022-09-21T03:06:34;5.13;;;3.17;;
29330;SDS011;16331;52.528;13.342;2022-09-21T03:09:01;5.95;;;3.40;;
29330;SDS011;16331;52.528;13.342;2022-09-21T03:11:27;6.10;;;3.40;;
29330;SDS011;16331;52.528;13.342;2022-09-21T03:13:53;7.50;;;3.10;;
29330;SDS011;16331;52.528;13.342;2022-09-21T03:16:20;7.30;;;4.30;;
29330;SDS011;16331;52.528;13.342;2022-09-21T03:18:48;6.28;;;3.65;;
29330;SDS011;16331;52.528;13.342;2022-09-21T03:21:14;4.30;;;3.00;;
29330;SDS011;16331;52.528;13.342;2022-09-21T03:23:40;5.78;;;3.03;;
29330;SDS011;16331;52.528;13.342;2022-09-21T03:26:06;6.30;;;3.47;;
29330;SDS011;16331;52.528;13.342;2022-09-21T03:28:32;7.90;;;3.42;;
29330;SDS011;16331;52.528;13.342;2022-09-21T03:30:59;7.95;;;3.95;;
29330;SDS011;16331;52.528;13.342;2022-09-21T03:33:25;6.07;;;3.15;;
29330;SDS011;16331;52.528;13.342;2022-09-21T03:35:51;6.05;;;3.05;;
29330;SDS011;16331;52.528;13.342;2022-09-21T03:38:18;4.85;;;2.85;;
29330;SDS011;16331;52.528;13.342;2022-09-21T03:40:45;7.90;;;3.63;;
29330;SDS011;16331;52.528;13.342;2022-09-21T03:43:12;11.20;;;3.20;;
29330;SDS011;16331;52.528;13.342;2022-09-21T03:45:39;6.63;;;3.28;;
29330;SDS011;16331;52.528;13.342;2022-09-21T03:48:07;5.15;;;2.90;;
29330;SDS011;16331;52.528;13.342;2022-09-21T03:50:34;4.53;;;2.92;;
29330;SDS011;16331;52.528;13.342;2022-09-21T03:53:01;6.35;;;4.22;;
29330;SDS011;16331;52.528;13.342;2022-09-21T03:55:27;6.78;;;3.40;;
29330;SDS011;16331;52.528;13.342;2022-09-21T03:57:55;6.30;;;3.30;;
29330;SDS011;16331;52.528;13.342;2022-09-21T04:00:21;8.52;;;3.67;;
29330;SDS011;16331;52.528;13.342;2022-09-21T04:02:47;6.72;;;3.20;;
29330;SDS011;16331;52.528;13.342;2022-09-21T04:05:14;6.28;;;3.53;;
29330;SDS011;16331;52.528;13.342;2022-09-21T04:07:42;10.20;;;4.28;;
29330;SDS011;16331;52.528;13.342;2022-09-21T04:10:12;9.10;;;3.42;;
29330;SDS011;16331;52.528;13.342;2022-09-21T04:12:41;5.05;;;3.60;;
29330;SDS011;16331;52.528;13.342;2022-09-21T04:15:15;7.05;;;3.60;;
29330;SDS011;16331;52.528;13.342;2022-09-21T04:17:43;6.90;;;3.83;;
29330;SDS011;16331;52.528;13.342;2022-09-21T04:20:10;8.25;;;4.10;;
29330;SDS011;16331;52.528;13.342;2022-09-21T04:22:41;12.05;;;3.58;;
29330;SDS011;16331;52.528;13.342;2022-09-21T04:25:09;12.02;;;4.00;;
29330;SDS011;16331;52.528;13.342;2022-09-21T04:27:36;6.68;;;3.53;;
29330;SDS011;16331;52.528;13.342;2022-09-21T04:30:04;8.38;;;4.07;;
29330;SDS011;16331;52.528;13.342;2022-09-21T04:32:34;10.15;;;3.85;;
29330;SDS011;16331;52.528;13.342;2022-09-21T04:35:00;5.25;;;3.65;;
29330;SDS011;16331;52.528;13.342;2022-09-21T04:37:26;8.32;;;3.30;;
29330;SDS011;16331;52.528;13.342;2022-09-21T04:39:52;9.13;;;3.83;;
29330;SDS011;16331;52.528;13.342;2022-09-21T04:42:18;7.38;;;3.17;;
29330;SDS011;16331;52.528;13.342;2022-09-21T04:44:45;7.05;;;3.70;;
29330;SDS011;16331;52.528;13.342;2022-09-21T04:47:11;7.07;;;4.03;;
29330;SDS011;16331;52.528;13.342;2022-09-21T04:49:37;7.22;;;3.40;;
29330;SDS011;16331;52.528;13.342;2022-09-21T04:52:03;7.88;;;3.08;;
29330;SDS011;16331;52.528;13.342;2022-09-21T04:54:30;10.88;;;4.32;;
29330;SDS011;16331;52.528;13.342;2022-09-21T04:56:56;13.27;;;4.05;;
29330;SDS011;16331;52.528;13.342;2022-09-21T04:59:22;10.65;;;4.07;;
29330;SDS011;16331;52.528;13.342;2022-09-21T05:01:51;7.97;;;4.00;;
29330;SDS011;16331;52.528;13.342;2022-09-21T05:04:17;8.40;;;4.40;;
29330;SDS011;16331;52.528;13.342;2022-09-21T05:06:43;7.25;;;3.97;;
29330;SDS011;16331;52.528;13.342;2022-09-21T05:09:09;8.20;;;4.88;;
29330;SDS011;16331;52.528;13.342;2022-09-21T05:11:54;5.97;;;3.53;;
29330;SDS011;16331;52.528;13.342;2022-09-21T05:14:20;8.25;;;4.38;;
29330;SDS011;16331;52.528;13.342;2022-09-21T05:16:46;8.43;;;3.85;;
29330;SDS011;16331;52.528;13.342;2022-09-21T05:19:13;9.80;;;4.40;;
29330;SDS011;16331;52.528;13.342;2022-09-21T05:21:41;7.78;;;3.40;;
29330;SDS011;16331;52.528;13.342;2022-09-21T05:24:08;9.32;;;4.20;;
29330;SDS011;16331;52.528;13.342;2022-09-21T05:26:34;11.23;;;4.25;;
29330;SDS011;16331;52.528;13.342;2022-09-21T05:29:00;10.35;;;4.72;;
29330;SDS011;16331;52.528;13.342;2022-09-21T05:31:30;7.53;;;4.38;;
29330;SDS011;16331;52.528;13.342;2022-09-21T05:34:18;8.20;;;3.80;;
29330;SDS011;16331;52.528;13.342;2022-09-21T05:36:59;13.73;;;4.57;;
29330;SDS011;16331;52.528;13.342;2022-09-21T05:39:47;6.50;;;3.58;;
29330;SDS011;16331;52.528;13.342;2022-09-21T05:42:14;8.75;;;4.22;;
29330;SDS011;16331;52.528;13.342;2022-09-21T05:44:40;9.48;;;4.32;;
29330;SDS011;16331;52.528;13.342;2022-09-21T05:47:52;12.40;;;4.63;;
29330;SDS011;16331;52.528;13.342;2022-09-21T05:55:54;9.93;;;4.75;;
29330;SDS011;16331;52.528;13.342;2022-09-21T06:03:55;7.70;;;4.75;;
29330;SDS011;16331;52.528;13.342;2022-09-21T06:06:22;8.70;;;4.60;;
29330;SDS011;16331;52.528;13.342;2022-09-21T06:08:48;9.38;;;4.60;;
29330;SDS011;16331;52.528;13.342;2022-09-21T06:11:16;7.00;;;4.10;;
29330;SDS011;16331;52.528;13.342;2022-09-21T06:13:42;10.48;;;5.15;;
29330;SDS011;16331;52.528;13.342;2022-09-21T06:16:08;6.03;;;4.38;;
29330;SDS011;16331;52.528;13.342;2022-09-21T06:18:39;9.88;;;4.32;;
29330;SDS011;16331;52.528;13.342;2022-09-21T06:21:06;14.20;;;4.72;;
29330;SDS011;16331;52.528;13.342;2022-09-21T06:23:33;9.32;;;4.53;;
29330;SDS011;16331;52.528;13.342;2022-09-21T06:25:59;9.63;;;4.18;;
29330;SDS011;16331;52.528;13.342;2022-09-21T06:28:25;8.85;;;4.95;;
29330;SDS011;16331;52.528;13.342;2022-09-21T06:30:52;10.23;;;4.28;;
29330;SDS011;16331;52.528;13.342;2022-09-21T06:33:19;11.75;;;4.47;;
29330;SDS011;16331;52.528;13.342;2022-09-21T06:35:57;10.38;;;4.85;;
29330;SDS011;16331;52.528;13.342;2022-09-21T06:38:24;8.60;;;3.92;;
29330;SDS011;16331;52.528;13.342;2022-09-21T06:40:51;14.13;;;4.03;;
29330;SDS011;16331;52.528;13.342;2022-09-21T06:43:18;8.95;;;4.50;;
29330;SDS011;16331;52.528;13.342;2022-09-21T06:45:51;9.32;;;4.80;;
29330;SDS011;16331;52.528;13.342;2022-09-21T06:48:19;13.38;;;4.40;;
29330;SDS011;16331;52.528;13.342;2022-09-21T06:50:46;6.93;;;4.55;;
29330;SDS011;16331;52.528;13.342;2022-09-21T06:53:12;7.63;;;3.80;;
29330;SDS011;16331;52.528;13.342;2022-09-21T06:55:38;5.63;;;3.75;;
29330;SDS011;16331;52.528;13.342;2022-09-21T06:58:05;8.45;;;3.67;;
29330;SDS011;16331;52.528;13.342;2022-09-21T07:00:31;6.53;;;3.60;;
29330;SDS011;16331;52.528;13.342;2022-09-21T07:02:57;5.53;;;3.45;;
29330;SDS011;16331;52.528;13.342;2022-09-21T07:05:24;13.35;;;4.55;;
29330;SDS011;16331;52.528;13.342;2022-09-21T07:07:50;8.13;;;3.92;;
29330;SDS011;16331;52.528;13.342;2022-09-21T07:10:20;8.00;;;3.55;;
29330;SDS011;16331;52.528;13.342;2022-09-21T07:12:46;8.70;;;4.20;;
29330;SDS011;16331;52.528;13.342;2022-09-21T07:15:13;8.88;;;3.80;;
29330;SDS011;16331;52.528;13.342;2022-09-21T07:17:39;6.40;;;3.63;;
29330;SDS011;16331;52.528;13.342;2022-09-21T07:20:07;8.35;;;3.63;;
29330;SDS011;16331;52.528;13.342;2022-09-21T07:22:33;6.38;;;3.33;;
29330;SDS011;16331;52.528;13.342;2022-09-21T07:25:01;10.93;;;3.95;;
29330;SDS011;16331;52.528;13.342;2022-09-21T07:27:29;5.88;;;3.10;;
29330;SDS011;16331;52.528;13.342;2022-09-21T07:29:57;5.05;;;3.20;;
29330;SDS011;16331;52.528;13.342;2022-09-21T07:32:24;6.63;;;3.17;;
29330;SDS011;16331;52.528;13.342;2022-09-21T07:34:50;6.07;;;3.38;;
29330;SDS011;16331;52.528;13.342;2022-09-21T07:37:20;8.15;;;3.40;;
29330;SDS011;16331;52.528;13.342;2022-09-21T07:39:48;7.60;;;3.30;;
29330;SDS011;16331;52.528;13.342;2022-09-21T07:42:17;4.28;;;2.63;;
29330;SDS011;16331;52.528;13.342;2022-09-21T07:44:44;7.43;;;3.42;;
29330;SDS011;16331;52.528;13.342;2022-09-21T07:47:11;9.20;;;3.50;;
29330;SDS011;16331;52.528;13.342;2022-09-21T07:49:37;4.88;;;3.00;;
29330;SDS011;16331;52.528;13.342;2022-09-21T07:52:04;7.88;;;3.05;;
29330;SDS011;16331;52.528;13.342;2022-09-21T07:54:30;5.70;;;2.58;;
29330;SDS011;16331;52.528;13.342;2022-09-21T07:56:57;8.35;;;3.55;;
29330;SDS011;16331;52.528;13.342;2022-09-21T07:59:42;5.70;;;2.70;;
29330;SDS011;16331;52.528;13.342;2022-09-21T08:02:09;8.00;;;2.90;;
29330;SDS011;16331;52.528;13.342;2022-09-21T08:04:36;6.75;;;2.95;;
29330;SDS011;16331;52.528;13.342;2022-09-21T08:07:04;7.28;;;2.80;;
29330;SDS011;16331;52.528;13.342;2022-09-21T08:09:31;5.82;;;3.40;;
29330;SDS011;16331;52.528;13.342;2022-09-21T08:11:57;5.65;;;3.03;;
29330;SDS011;16331;52.528;13.342;2022-09-21T08:14:23;8.35;;;3.42;;
29330;SDS011;16331;52.528;13.342;2022-09-21T08:16:49;13.30;;;3.58;;
29330;SDS011;16331;52.528;13.342;2022-09-21T08:19:15;8.27;;;3.80;;
29330;SDS011;16331;52.528;13.342;2022-09-21T08:21:41;9.35;;;3.15;;
29330;SDS011;16331;52.528;13.342;2022-09-21T08:24:08;13.85;;;3.53;;
29330;SDS011;16331;52.528;13.342;2022-09-21T08:26:34;8.02;;;3.08;;
29330;SDS011;16331;52.528;13.342;2022-09-21T08:29:01;5.50;;;3.53;;
29330;SDS011;16331;52.528;13.342;2022-09-21T08:31:30;9.98;;;3.42;;
29330;SDS011;16331;52.528;13.342;2022-09-21T08:33:56;5.82;;;2.67;;
29330;SDS011;16331;52.528;13.342;2022-09-21T08:36:23;6.53;;;2.55;;
29330;SDS011;16331;52.528;13.342;2022-09-21T08:38:49;6.95;;;2.97;;
29330;SDS011;16331;52.528;13.342;2022-09-21T08:41:16;5.10;;;3.03;;
29330;SDS011;16331;52.528;13.342;2022-09-21T08:43:57;7.60;;;2.70;;
29330;SDS011;16331;52.528;13.342;2022-09-21T08:46:32;7.32;;;3.15;;
29330;SDS011;16331;52.528;13.342;2022-09-21T08:49:16;6.25;;;2.95;;
29330;SDS011;16331;52.528;13.342;2022-09-21T08:51:58;6.93;;;3.33;;
29330;SDS011;16331;52.528;13.342;2022-09-21T08:54:36;4.90;;;2.40;;
29330;SDS011;16331;52.528;13.342;2022-09-21T08:57:22;4.20;;;2.17;;
29330;SDS011;16331;52.528;13.342;2022-09-21T08:59:56;5.40;;;2.85;;
29330;SDS011;16331;52.528;13.342;2022-09-21T09:10:34;4.57;;;2.85;;
29330;SDS011;16331;52.528;13.342;2022-09-21T09:16:19;7.55;;;2.30;;
29330;SDS011;16331;52.528;13.342;2022-09-21T09:18:52;6.25;;;2.33;;
29330;SDS011;16331;52.528;13.342;2022-09-21T09:21:45;3.83;;;2.10;;
29330;SDS011;16331;52.528;13.342;2022-09-21T09:24:54;4.72;;;2.40;;
29330;SDS011;16331;52.528;13.342;2022-09-21T09:27:23;8.43;;;2.45;;
29330;SDS011;16331;52.528;13.342;2022-09-21T09:30:17;4.22;;;2.20;;
29330;SDS011;16331;52.528;13.342;2022-09-21T09:32:54;5.57;;;2.33;;
29330;SDS011;16331;52.528;13.342;2022-09-21T09:35:51;6.80;;;2.58;;
29330;SDS011;16331;52.528;13.342;2022-09-21T09:41:25;3.42;;;1.80;;
29330;SDS011;16331;52.528;13.342;2022-09-21T09:44:13;6.30;;;1.98;;
29330;SDS011;16331;52.528;13.342;2022-09-21T09:46:48;4.15;;;1.52;;
29330;SDS011;16331;52.528;13.342;2022-09-21T09:49:31;2.58;;;1.52;;
29330;SDS011;16331;52.528;13.342;2022-09-21T09:52:10;3.45;;;1.75;;
29330;SDS011;16331;52.528;13.342;2022-09-21T09:54:40;2.70;;;1.50;;
29330;SDS011;16331;52.528;13.342;2022-09-21T09:57:07;5.22;;;1.85;;
29330;SDS011;16331;52.528;13.342;2022-09-21T09:59:47;1.88;;;1.13;;
29330;SDS011;16331;52.528;13.342;2022-09-21T10:02:19;2.88;;;1.20;;
29330;SDS011;16331;52.528;13.342;2022-09-21T10:05:00;2.45;;;0.90;;
29330;SDS011;16331;52.528;13.342;2022-09-21T10:07:40;3.30;;;1.20;;
29330;SDS011;16331;52.528;13.342;2022-09-21T10:13:02;0.88;;;0.70;;
29330;SDS011;16331;52.528;13.342;2022-09-21T10:15:38;2.15;;;0.73;;
29330;SDS011;16331;52.528;13.342;2022-09-21T10:18:36;3.95;;;0.90;;
29330;SDS011;16331;52.528;13.342;2022-09-21T10:21:21;1.08;;;0.60;;
29330;SDS011;16331;52.528;13.342;2022-09-21T10:23:57;1.42;;;0.50;;
29330;SDS011;16331;52.528;13.342;2022-09-21T10:26:33;1.52;;;0.50;;
29330;SDS011;16331;52.528;13.342;2022-09-21T10:29:18;0.98;;;0.60;;
29330;SDS011;16331;52.528;13.342;2022-09-21T10:34:38;0.57;;;0.50;;
29330;SDS011;16331;52.528;13.342;2022-09-21T10:39:55;1.55;;;0.50;;
29330;SDS011;16331;52.528;13.342;2022-09-21T10:42:21;5.43;;;0.82;;
29330;SDS011;16331;52.528;13.342;2022-09-21T10:44:52;1.52;;;0.70;;
29330;SDS011;16331;52.528;13.342;2022-09-21T10:47:41;0.63;;;0.43;;
29330;SDS011;16331;52.528;13.342;2022-09-21T10:50:28;2.38;;;0.40;;
29330;SDS011;16331;52.528;13.342;2022-09-21T10:55:38;0.43;;;0.40;;
29330;SDS011;16331;52.528;13.342;2022-09-21T10:58:11;0.70;;;0.40;;
29330;SDS011;16331;52.528;13.342;2022-09-21T11:00:45;0.77;;;0.28;;
29330;SDS011;16331;52.528;13.342;2022-09-21T11:03:27;1.63;;;0.52;;
29330;SDS011;16331;52.528;13.342;2022-09-21T11:06:04;22.45;;;7.63;;
29330;SDS011;16331;52.528;13.342;2022-09-21T11:08:48;1.70;;;0.60;;
29330;SDS011;16331;52.528;13.342;2022-09-21T11:14:12;0.57;;;0.47;;
29330;SDS011;16331;52.528;13.342;2022-09-21T11:16:52;1.73;;;0.32;;
29330;SDS011;16331;52.528;13.342;2022-09-21T11:22:34;2.42;;;0.60;;
29330;SDS011;16331;52.528;13.342;2022-09-21T11:25:30;1.40;;;0.38;;
29330;SDS011;16331;52.528;13.342;2022-09-21T11:30:51;0.52;;;0.40;;
29330;SDS011;16331;52.528;13.342;2022-09-21T11:36:24;1.00;;;0.40;;
29330;SDS011;16331;52.528;13.342;2022-09-21T11:39:14;0.57;;;0.15;;
29330;SDS011;16331;52.528;13.342;2022-09-21T11:42:21;0.20;;;0.15;;
29330;SDS011;16331;52.528;13.342;2022-09-21T11:45:20;0.82;;;0.50;;
29330;SDS011;16331;52.528;13.342;2022-09-21T11:51:06;1.63;;;0.70;;
29330;SDS011;16331;52.528;13.342;2022-09-21T11:54:05;0.80;;;0.50;;
29330;SDS011;16331;52.528;13.342;2022-09-21T12:00:07;0.22;;;0.22;;
29330;SDS011;16331;52.528;13.342;2022-09-21T12:02:28;0.70;;;0.40;;
29330;SDS011;16331;52.528;13.342;2022-09-21T12:05:28;1.67;;;0.43;;
29330;SDS011;16331;52.528;13.342;2022-09-21T12:08:23;0.68;;;0.50;;
29330;SDS011;16331;52.528;13.342;2022-09-21T12:13:44;1.25;;;0.40;;
29330;SDS011;16331;52.528;13.342;2022-09-21T12:16:41;2.55;;;0.70;;
29330;SDS011;16331;52.528;13.342;2022-09-21T12:19:27;2.92;;;0.40;;
29330;SDS011;16331;52.528;13.342;2022-09-21T12:22:21;1.85;;;0.57;;
29330;SDS011;16331;52.528;13.342;2022-09-21T12:27:48;2.33;;;0.40;;
29330;SDS011;16331;52.528;13.342;2022-09-21T12:30:27;1.75;;;0.88;;
29330;SDS011;16331;52.528;13.342;2022-09-21T12:33:04;1.23;;;0.50;;
29330;SDS011;16331;52.528;13.342;2022-09-21T12:38:34;1.45;;;0.50;;
29330;SDS011;16331;52.528;13.342;2022-09-21T12:41:35;0.98;;;0.70;;
29330;SDS011;16331;52.528;13.342;2022-09-21T12:44:13;0.68;;;0.60;;
29330;SDS011;16331;52.528;13.342;2022-09-21T12:47:02;1.70;;;0.70;;
29330;SDS011;16331;52.528;13.342;2022-09-21T12:49:43;0.70;;;0.40;;
29330;SDS011;16331;52.528;13.342;2022-09-21T12:52:19;0.50;;;0.32;;
29330;SDS011;16331;52.528;13.342;2022-09-21T12:57:21;0.20;;;0.20;;
29330;SDS011;16331;52.528;13.342;2022-09-21T13:00:02;1.95;;;0.50;;
29330;SDS011;16331;52.528;13.342;2022-09-21T13:02:41;1.58;;;0.52;;
29330;SDS011;16331;52.528;13.342;2022-09-21T13:08:25;1.27;;;0.43;;
29330;SDS011;16331;52.528;13.342;2022-09-21T13:10:58;0.35;;;0.30;;
29330;SDS011;16331;52.528;13.342;2022-09-21T13:13:48;1.27;;;0.60;;
29330;SDS011;16331;52.528;13.342;2022-09-21T13:16:28;2.67;;;0.65;;
29330;SDS011;16331;52.528;13.342;2022-09-21T13:21:28;1.00;;;0.40;;
29330;SDS011;16331;52.528;13.342;2022-09-21T13:23:57;1.00;;;0.35;;
29330;SDS011;16331;52.528;13.342;2022-09-21T13:26:32;3.00;;;0.40;;
29330;SDS011;16331;52.528;13.342;2022-09-21T13:34:31;1.73;;;0.57;;
29330;SDS011;16331;52.528;13.342;2022-09-21T13:39:44;1.52;;;0.40;;
29330;SDS011;16331;52.528;13.342;2022-09-21T13:47:29;0.75;;;0.50;;
29330;SDS011;16331;52.528;13.342;2022-09-21T13:49:58;0.95;;;0.32;;
29330;SDS011;16331;52.528;13.342;2022-09-21T13:52:38;0.40;;;0.30;;
29330;SDS011;16331;52.528;13.342;2022-09-21T13:55:22;1.35;;;0.20;;
29330;SDS011;16331;52.528;13.342;2022-09-21T13:58:01;1.05;;;0.50;;
29330;SDS011;16331;52.528;13.342;2022-09-21T14:00:49;0.50;;;0.22;;
29330;SDS011;16331;52.528;13.342;2022-09-21T14:03:31;1.15;;;0.47;;
29330;SDS011;16331;52.528;13.342;2022-09-21T14:06:15;0.32;;;0.30;;
29330;SDS011;16331;52.528;13.342;2022-09-21T14:08:52;1.40;;;0.40;;
29330;SDS011;16331;52.528;13.342;2022-09-21T14:11:32;1.67;;;0.50;;
29330;SDS011;16331;52.528;13.342;2022-09-21T14:14:07;2.90;;;0.50;;
29330;SDS011;16331;52.528;13.342;2022-09-21T14:16:52;1.33;;;0.30;;
29330;SDS011;16331;52.528;13.342;2022-09-21T14:24:44;0.20;;;0.20;;
29330;SDS011;16331;52.528;13.342;2022-09-21T14:27:33;0.55;;;0.30;;
29330;SDS011;16331;52.528;13.342;2022-09-21T14:30:04;0.47;;;0.20;;
29330;SDS011;16331;52.528;13.342;2022-09-21T14:35:46;0.68;;;0.35;;
29330;SDS011;16331;52.528;13.342;2022-09-21T14:38:28;0.52;;;0.30;;
29330;SDS011;16331;52.528;13.342;2022-09-21T14:41:04;1.02;;;0.55;;
29330;SDS011;16331;52.528;13.342;2022-09-21T14:43:32;0.35;;;0.20;;
29330;SDS011;16331;52.528;13.342;2022-09-21T14:46:16;0.40;;;0.22;;
29330;SDS011;16331;52.528;13.342;2022-09-21T14:51:41;2.22;;;0.70;;
29330;SDS011;16331;52.528;13.342;2022-09-21T14:59:51;3.33;;;0.50;;
29330;SDS011;16331;52.528;13.342;2022-09-21T15:02:46;0.50;;;0.45;;
29330;SDS011;16331;52.528;13.342;2022-09-21T15:05:21;1.88;;;0.50;;
29330;SDS011;16331;52.528;13.342;2022-09-21T15:08:16;1.42;;;0.40;;
29330;SDS011;16331;52.528;13.342;2022-09-21T15:11:19;0.55;;;0.52;;
29330;SDS011;16331;52.528;13.342;2022-09-21T15:16:51;0.50;;;0.40;;
29330;SDS011;16331;52.528;13.342;2022-09-21T15:21:52;0.95;;;0.50;;
29330;SDS011;16331;52.528;13.342;2022-09-21T15:24:23;0.80;;;0.40;;
29330;SDS011;16331;52.528;13.342;2022-09-21T15:27:06;2.65;;;0.43;;
29330;SDS011;16331;52.528;13.342;2022-09-21T15:29:41;2.78;;;0.40;;
29330;SDS011;16331;52.528;13.342;2022-09-21T15:32:15;0.40;;;0.30;;
29330;SDS011;16331;52.528;13.342;2022-09-21T15:34:58;1.08;;;0.30;;
29330;SDS011;16331;52.528;13.342;2022-09-21T15:37:27;0.55;;;0.40;;
29330;SDS011;16331;52.528;13.342;2022-09-21T15:40:02;0.85;;;0.52;;
29330;SDS011;16331;52.528;13.342;2022-09-21T15:42:31;0.45;;;0.32;;
29330;SDS011;16331;52.528;13.342;2022-09-21T15:45:15;2.10;;;0.40;;
29330;SDS011;16331;52.528;13.342;2022-09-21T15:47:42;0.73;;;0.40;;
29330;SDS011;16331;52.528;13.342;2022-09-21T15:50:15;1.23;;;0.50;;
29330;SDS011;16331;52.528;13.342;2022-09-21T15:52:49;1.63;;;0.50;;
29330;SDS011;16331;52.528;13.342;2022-09-21T15:55:23;0.63;;;0.40;;
29330;SDS011;16331;52.528;13.342;2022-09-21T15:57:55;0.43;;;0.40;;
29330;SDS011;16331;52.528;13.342;2022-09-21T16:00:24;1.17;;;0.50;;
29330;SDS011;16331;52.528;13.342;2022-09-21T16:03:17;0.30;;;0.30;;
29330;SDS011;16331;52.528;13.342;2022-09-21T16:05:46;0.50;;;0.40;;
29330;SDS011;16331;52.528;13.342;2022-09-21T16:14:08;0.55;;;0.43;;
29330;SDS011;16331;52.528;13.342;2022-09-21T16:19:40;1.23;;;0.43;;
29330;SDS011;16331;52.528;13.342;2022-09-21T16:22:14;0.43;;;0.30;;
29330;SDS011;16331;52.528;13.342;2022-09-21T16:24:54;0.20;;;0.17;;
29330;SDS011;16331;52.528;13.342;2022-09-21T16:27:23;1.15;;;0.52;;
29330;SDS011;16331;52.528;13.342;2022-09-21T16:29:56;0.68;;;0.38;;
29330;SDS011;16331;52.528;13.342;2022-09-21T16:32:30;0.43;;;0.30;;
29330;SDS011;16331;52.528;13.342;2022-09-21T16:37:58;1.23;;;0.50;;
29330;SDS011;16331;52.528;13.342;2022-09-21T16:40:25;1.25;;;0.65;;
29330;SDS011;16331;52.528;13.342;2022-09-21T16:42:52;0.50;;;0.35;;
29330;SDS011;16331;52.528;13.342;2022-09-21T16:45:23;0.80;;;0.50;;
29330;SDS011;16331;52.528;13.342;2022-09-21T16:47:55;1.55;;;0.60;;
29330;SDS011;16331;52.528;13.342;2022-09-21T16:50:23;3.13;;;0.80;;
29330;SDS011;16331;52.528;13.342;2022-09-21T16:52:49;2.65;;;0.90;;
29330;SDS011;16331;52.528;13.342;2022-09-21T16:55:16;0.75;;;0.55;;
29330;SDS011;16331;52.528;13.342;2022-09-21T16:57:45;2.53;;;0.80;;
29330;SDS011;16331;52.528;13.342;2022-09-21T17:00:16;19.35;;;9.98;;
29330;SDS011;16331;52.528;13.342;2022-09-21T17:02:44;13.15;;;6.53;;
29330;SDS011;16331;52.528;13.342;2022-09-21T17:05:11;14.40;;;7.65;;
29330;SDS011;16331;52.528;13.342;2022-09-21T17:07:45;3.53;;;2.15;;
29330;SDS011;16331;52.528;13.342;2022-09-21T17:10:23;4.95;;;2.50;;
29330;SDS011;16331;52.528;13.342;2022-09-21T17:12:55;4.20;;;2.55;;
29330;SDS011;16331;52.528;13.342;2022-09-21T17:15:21;5.45;;;3.08;;
29330;SDS011;16331;52.528;13.342;2022-09-21T17:17:48;18.55;;;8.13;;
29330;SDS011;16331;52.528;13.342;2022-09-21T17:20:19;5.13;;;2.90;;
29330;SDS011;16331;52.528;13.342;2022-09-21T17:23:08;2.95;;;1.48;;